Pagina principale
METAR-TAF:

METAR-TAF

Aeroporti :

Colmar, Francia

latitudine: 48-06-37N, longitudine: 7-21-33E, altezza: 191 m

Osservazione

Il bollettino è stato emesso 15 minuti fa, alle 06:30 UTC
Vento 12 kt da sud
Temperature 3°C
Umidità 93%
Pressione 1007 hPa
Visibilità: 9000 m
Poco nuvoloso ad un'altezza di 3000 ft
Nuvoloso ad un'altezza di 3600 ft
Cielo coperto ad un'altezza di 4500 ft
pioggia debole

METAR: LFGA 180630Z AUTO 18012KT 9000 -RA FEW030 BKN036 OVC045 03/02 Q1007

Ora: 07:45 (06:45 UTC)


TAF: mancante

Osservazioni e previsioni meteorologiche di più di 4000 aeroporti (messaggi METAR e TAF).

Le stazioni disponibili sono rappresentate dai dischi gialli e rossi sulla carta.

Puntare il mouse per vedere il nome della stazione.

Clicca sopra per visualizzare le osservazioni e previsioni meteorologiche.

Per cambiare la mappa : fare clic sui pulsanti verdi con una croce nera per ingrandire, il pulsante verde con un trattino per diminuire, o sulla freccia verde per le mappe adiacenti.


METAR-TAF: